Time;durP1;ratioP1;P1;durP2;ratioP2;P2;SDS_P1;SDS_P2;PMS_P1;PMS_P2;Temp;Humidity;BMP_temperature;BMP_pressure;BME280_temperature;BME280_humidity;BME280_pressure;Samples;Min_cycle;Max_cycle;Signal;HPM_P1;HPM_P2
2023/07/12 00:01:03;;;;;;;5.03;2.70;;;;;;;21.74;81.37;100107.50;4940412;29;20044;-79
2023/07/12 00:03:31;;;;;;;5.35;2.90;;;;;;;21.67;81.17;100104.19;4934827;29;20056;-79
2023/07/12 00:05:58;;;;;;;3.97;2.75;;;;;;;21.75;80.85;100104.56;4941434;29;20082;-78
2023/07/12 00:08:27;;;;;;;3.50;2.67;;;;;;;21.50;80.54;100081.00;4941198;29;20051;-81
2023/07/12 00:10:58;;;;;;;10.40;3.55;;;;;;;21.64;80.87;100086.03;4942155;29;20058;-80
2023/07/12 00:13:26;;;;;;;3.30;2.92;;;;;;;21.78;80.21;100077.47;4939769;29;20055;-81
2023/07/12 00:15:55;;;;;;;5.35;3.33;;;;;;;21.59;80.79;100059.31;4933239;29;20052;-80
2023/07/12 00:18:27;;;;;;;5.93;3.20;;;;;;;21.61;80.69;100078.53;4938372;29;20063;-80
2023/07/12 00:20:55;;;;;;;5.70;3.15;;;;;;;21.74;80.68;100102.19;4939114;29;20048;-80
2023/07/12 00:23:23;;;;;;;4.28;3.22;;;;;;;21.79;80.88;100104.91;4938666;29;20417;-81
2023/07/12 00:25:50;;;;;;;5.82;2.92;;;;;;;21.79;80.82;100110.22;4938215;29;20065;-80
2023/07/12 00:28:22;;;;;;;5.72;2.90;;;;;;;21.76;80.67;100122.16;4938443;29;20060;-81
2023/07/12 00:30:53;;;;;;;4.10;2.90;;;;;;;21.78;80.67;100119.25;4938254;29;20083;-80
2023/07/12 00:33:21;;;;;;;5.07;3.40;;;;;;;21.94;80.64;100117.66;4939089;29;20413;-79
2023/07/12 00:35:49;;;;;;;4.90;3.00;;;;;;;22.04;79.93;100121.31;4937979;28;20056;-80
2023/07/12 00:38:19;;;;;;;3.72;3.00;;;;;;;22.00;79.63;100120.16;4937533;29;20522;-79
2023/07/12 00:41:06;;;;;;;4.50;3.15;;;;;;;21.92;80.03;100115.22;4975302;23;20129;-78
2023/07/12 00:43:38;;;;;;;6.93;3.25;;;;;;;21.96;80.51;100127.03;4981487;28;20055;-76
2023/07/12 00:46:14;;;;;;;4.20;3.13;;;;;;;21.93;80.33;100135.50;4982449;28;20047;-78
2023/07/12 00:48:40;;;;;;;4.18;2.90;;;;;;;21.80;80.86;100125.16;4984366;28;20085;-77
2023/07/12 00:51:28;;;;;;;6.72;2.95;;;;;;;21.94;80.89;100144.28;4979229;28;20451;-78
2023/07/12 00:53:57;;;;;;;5.70;3.17;;;;;;;22.06;80.63;100140.53;4976918;28;20050;-77
2023/07/12 00:56:25;;;;;;;8.02;3.30;;;;;;;22.13;80.69;100153.69;4978200;28;20113;-78
2023/07/12 00:58:55;;;;;;;6.30;3.50;;;;;;;22.13;80.36;100164.34;4985846;28;20149;-77
2023/07/12 01:01:26;;;;;;;5.43;2.97;;;;;;;21.87;81.26;100149.78;4979622;28;20054;-78
2023/07/12 01:03:53;;;;;;;4.53;3.40;;;;;;;21.92;81.68;100139.22;4975905;28;20047;-78
2023/07/12 01:06:21;;;;;;;4.28;3.40;;;;;;;21.99;81.59;100153.19;4985784;28;20061;-77
2023/07/12 01:08:48;;;;;;;6.60;4.10;;;;;;;21.86;81.87;100134.84;4988367;28;20078;-78
2023/07/12 01:11:20;;;;;;;6.93;3.15;;;;;;;21.82;82.20;100104.41;4981461;28;20043;-77
2023/07/12 01:13:50;;;;;;;5.72;3.33;;;;;;;21.73;82.80;100116.53;4991353;28;20137;-78
2023/07/12 01:16:20;;;;;;;6.10;3.60;;;;;;;21.72;82.88;100138.91;4982190;28;20085;-78
2023/07/12 01:18:47;;;;;;;7.18;3.60;;;;;;;21.77;82.94;100145.09;4988685;28;20051;-77
2023/07/12 01:21:18;;;;;;;6.43;3.70;;;;;;;21.61;84.92;100143.22;4986270;28;20058;-78
2023/07/12 01:23:45;;;;;;;4.80;3.40;;;;;;;21.80;85.18;100162.44;4987719;28;20483;-78
2023/07/12 01:26:22;;;;;;;11.57;3.65;;;;;;;21.89;85.39;100147.69;4986932;28;20055;-77
2023/07/12 01:28:52;;;;;;;9.52;3.42;;;;;;;21.82;84.73;100133.72;4988236;28;20044;-78
2023/07/12 01:31:19;;;;;;;5.72;3.60;;;;;;;21.81;84.94;100140.09;4983564;28;20138;-78
2023/07/12 01:33:46;;;;;;;4.63;3.47;;;;;;;21.82;85.58;100134.53;4990398;28;20110;-78
2023/07/12 01:36:13;;;;;;;7.50;3.30;;;;;;;21.69;85.63;100139.38;4989258;28;20510;-78
2023/07/12 01:38:41;;;;;;;6.65;3.53;;;;;;;21.51;85.42;100135.88;4990819;28;20090;-78
2023/07/12 01:41:08;;;;;;;5.53;3.38;;;;;;;21.55;85.33;100162.00;4994979;28;20113;-79
2023/07/12 01:43:35;;;;;;;4.53;3.47;;;;;;;21.34;86.31;100161.63;4990535;28;20051;-79
2023/07/12 01:46:02;;;;;;;7.88;3.20;;;;;;;21.25;86.79;100164.94;4983886;28;20145;-78
2023/07/12 01:48:29;;;;;;;4.82;3.03;;;;;;;21.15;87.09;100174.31;4983811;28;20073;-78
2023/07/12 01:50:55;;;;;;;7.82;3.65;;;;;;;21.01;87.54;100182.78;4989513;28;20072;-78
2023/07/12 01:53:22;;;;;;;4.15;3.40;;;;;;;21.09;87.47;100195.72;4987086;28;20078;-77
2023/07/12 01:55:50;;;;;;;4.07;3.22;;;;;;;21.03;87.54;100192.13;4992674;28;20307;-76
2023/07/12 01:58:16;;;;;;;5.63;3.67;;;;;;;21.12;87.10;100184.59;4986549;28;20493;-77
2023/07/12 02:00:43;;;;;;;6.10;3.05;;;;;;;21.06;86.41;100193.53;4987986;28;20410;-78
2023/07/12 02:03:10;;;;;;;6.30;3.33;;;;;;;21.07;86.50;100189.81;4989026;28;20073;-79
2023/07/12 02:05:36;;;;;;;6.10;3.53;;;;;;;21.04;86.97;100183.13;4990059;28;20507;-79
2023/07/12 02:08:03;;;;;;;5.28;3.40;;;;;;;21.00;87.09;100181.97;4987933;28;20101;-79
2023/07/12 02:10:30;;;;;;;5.22;3.30;;;;;;;21.03;87.11;100194.81;4985237;28;20495;-78
2023/07/12 02:12:58;;;;;;;5.15;3.20;;;;;;;20.91;87.27;100198.50;4988263;28;20078;-78
2023/07/12 02:15:24;;;;;;;6.70;3.45;;;;;;;20.91;87.34;100219.78;4984317;28;20603;-80
2023/07/12 02:17:51;;;;;;;5.55;3.70;;;;;;;20.94;87.96;100219.31;4991206;28;20078;-78
2023/07/12 02:20:18;;;;;;;5.97;3.20;;;;;;;20.94;88.26;100222.81;4985089;28;20161;-78
2023/07/12 02:22:46;;;;;;;4.22;3.28;;;;;;;20.91;88.08;100217.13;4986385;28;20061;-79
2023/07/12 02:25:13;;;;;;;7.10;3.60;;;;;;;20.99;88.13;100222.09;4986224;28;20080;-78
2023/07/12 02:27:40;;;;;;;4.40;3.25;;;;;;;21.01;87.81;100228.00;4985677;28;20050;-77
2023/07/12 02:30:11;;;;;;;5.90;3.40;;;;;;;21.09;87.64;100235.63;4985529;28;20046;-78
2023/07/12 02:32:38;;;;;;;5.22;3.45;;;;;;;21.09;86.83;100228.44;4984568;28;20054;-78
2023/07/12 02:35:06;;;;;;;5.00;3.33;;;;;;;20.99;87.22;100233.53;4988767;28;20441;-80
2023/07/12 02:37:32;;;;;;;3.95;3.08;;;;;;;21.06;87.00;100222.78;4988699;28;20129;-80
2023/07/12 02:39:59;;;;;;;5.43;3.50;;;;;;;21.03;86.73;100213.41;4987280;28;20125;-80
2023/07/12 02:42:26;;;;;;;7.38;3.58;;;;;;;21.01;86.60;100230.66;4993225;28;20085;-79
2023/07/12 02:44:53;;;;;;;6.38;3.58;;;;;;;21.03;86.62;100236.56;4989027;28;20073;-80
2023/07/12 02:47:21;;;;;;;5.53;3.50;;;;;;;20.94;86.63;100251.25;4999872;28;20084;-81
2023/07/12 02:49:47;;;;;;;4.80;3.17;;;;;;;20.78;86.87;100250.94;4997066;28;20047;-80
2023/07/12 02:52:14;;;;;;;6.63;3.70;;;;;;;20.73;87.18;100261.44;4994585;28;20051;-80
2023/07/12 02:54:41;;;;;;;4.93;3.67;;;;;;;20.55;87.81;100277.50;5000857;28;20065;-79
2023/07/12 02:57:12;;;;;;;7.25;3.90;;;;;;;20.35;88.85;100290.25;5001672;28;20061;-82
2023/07/12 02:59:40;;;;;;;7.03;3.90;;;;;;;20.19;89.97;100278.44;4994980;28;20074;-80
2023/07/12 03:02:09;;;;;;;6.47;3.90;;;;;;;20.10;90.42;100283.28;4989252;28;20082;-79
2023/07/12 03:04:37;;;;;;;7.03;3.63;;;;;;;20.14;90.90;100278.31;4985140;28;20114;-77
2023/07/12 03:07:04;;;;;;;8.57;3.83;;;;;;;20.14;90.88;100287.09;4980297;28;20051;-78
2023/07/12 03:09:30;;;;;;;6.78;3.83;;;;;;;20.05;90.41;100285.00;4985888;28;20043;-79
2023/07/12 03:11:57;;;;;;;7.10;3.80;;;;;;;20.11;89.54;100279.59;4986150;28;20049;-79
2023/07/12 03:14:25;;;;;;;5.30;3.78;;;;;;;20.06;86.74;100281.28;4984832;28;20047;-79
2023/07/12 03:16:51;;;;;;;6.55;3.50;;;;;;;19.92;85.18;100293.94;4992777;28;20408;-79
2023/07/12 03:19:19;;;;;;;11.82;3.47;;;;;;;19.76;84.21;100297.25;4991537;28;20077;-79
2023/07/12 03:21:47;;;;;;;12.82;4.30;;;;;;;19.72;83.10;100296.88;4988369;28;20085;-79
2023/07/12 03:24:14;;;;;;;13.93;3.30;;;;;;;19.59;82.74;100296.22;4993952;28;20133;-78
2023/07/12 03:26:41;;;;;;;16.30;3.55;;;;;;;19.45;82.42;100279.63;4994151;28;20126;-82
2023/07/12 03:29:11;;;;;;;21.45;3.83;;;;;;;19.48;82.54;100293.25;5003450;28;20046;-84
2023/07/12 03:31:46;;;;;;;12.80;3.40;;;;;;;19.37;82.44;100266.69;4998106;28;20053;-81
2023/07/12 03:34:21;;;;;;;11.18;3.28;;;;;;;19.52;81.21;100288.34;4998317;28;20054;-81
2023/07/12 03:36:53;;;;;;;8.95;3.70;;;;;;;19.37;81.52;100267.47;4994772;28;20050;-82
2023/07/12 03:39:24;;;;;;;12.20;3.00;;;;;;;19.41;81.50;100284.56;5002661;28;20062;-80
2023/07/12 03:41:51;;;;;;;7.60;3.07;;;;;;;19.47;81.47;100288.97;4997027;28;20081;-80
2023/07/12 03:44:17;;;;;;;12.13;2.83;;;;;;;19.50;81.20;100287.72;4992262;28;20317;-82
2023/07/12 03:46:44;;;;;;;7.50;2.88;;;;;;;19.35;81.61;100300.56;4990035;28;20137;-82
2023/07/12 03:49:10;;;;;;;5.95;2.67;;;;;;;19.31;81.76;100284.28;4997885;28;20070;-82
2023/07/12 03:51:37;;;;;;;4.38;2.35;;;;;;;19.24;81.86;100286.19;4995433;28;20138;-80
2023/07/12 03:54:05;;;;;;;3.65;2.40;;;;;;;19.32;81.60;100296.53;4996246;28;20141;-81
2023/07/12 03:56:32;;;;;;;8.50;2.80;;;;;;;19.27;81.81;100274.34;4990873;28;20561;-82
2023/07/12 03:58:59;;;;;;;6.25;2.80;;;;;;;19.30;82.13;100282.66;5003035;28;20490;-81
2023/07/12 04:01:28;;;;;;;5.40;3.03;;;;;;;19.15;83.43;100276.91;4992283;28;20499;-81
2023/07/12 04:03:55;;;;;;;4.20;2.65;;;;;;;19.29;85.18;100296.97;4994781;28;20578;-80
2023/07/12 04:06:22;;;;;;;4.43;2.92;;;;;;;19.27;86.13;100298.22;4986415;28;20058;-80
2023/07/12 04:08:48;;;;;;;7.53;3.38;;;;;;;19.09;87.74;100299.00;4987783;28;20111;-80
2023/07/12 04:11:25;;;;;;;5.38;2.83;;;;;;;19.21;89.61;100303.38;4980873;28;20114;-81
2023/07/12 04:13:52;;;;;;;6.57;2.80;;;;;;;19.10;90.29;100305.94;4992185;28;20060;-80
2023/07/12 04:16:19;;;;;;;6.85;2.80;;;;;;;19.02;90.70;100298.25;4996956;28;20077;-81
2023/07/12 04:18:46;;;;;;;5.30;2.55;;;;;;;19.06;91.86;100296.78;4998598;28;20055;-81
2023/07/12 04:21:13;;;;;;;3.05;2.67;;;;;;;19.03;91.94;100300.69;4993859;28;20221;-81
2023/07/12 04:23:40;;;;;;;6.95;2.35;;;;;;;18.95;91.65;100292.19;4992223;28;20519;-81
2023/07/12 04:26:06;;;;;;;2.58;2.10;;;;;;;18.88;92.33;100303.69;4998761;28;20065;-81
2023/07/12 04:28:39;;;;;;;4.45;2.50;;;;;;;18.86;94.07;100318.19;4995447;28;20115;-81
2023/07/12 04:31:10;;;;;;;5.70;2.65;;;;;;;18.79;93.62;100312.97;4997982;28;20108;-81
2023/07/12 04:33:37;;;;;;;4.63;3.00;;;;;;;18.90;95.43;100333.44;4997073;28;20157;-81
2023/07/12 04:36:06;;;;;;;6.65;3.38;;;;;;;18.88;95.26;100327.56;4999695;28;20080;-80
2023/07/12 04:38:33;;;;;;;7.40;3.38;;;;;;;18.95;95.26;100335.44;4995921;28;20050;-80
2023/07/12 04:41:00;;;;;;;5.68;3.20;;;;;;;18.98;95.68;100342.94;4997866;28;20049;-80
2023/07/12 04:43:26;;;;;;;5.22;2.40;;;;;;;19.01;95.78;100339.06;4993766;28;20074;-81
2023/07/12 04:45:55;;;;;;;5.38;3.35;;;;;;;19.02;94.99;100348.63;5004526;28;20083;-80
2023/07/12 04:48:22;;;;;;;4.75;3.15;;;;;;;19.01;94.97;100347.00;4992856;28;20130;-80
2023/07/12 04:50:53;;;;;;;4.53;2.83;;;;;;;18.94;93.59;100336.47;4993389;28;20051;-79
2023/07/12 04:53:20;;;;;;;4.45;2.70;;;;;;;19.01;93.64;100339.06;4993166;28;20085;-79
2023/07/12 04:55:50;;;;;;;4.93;2.70;;;;;;;19.00;93.95;100353.34;4997916;28;20346;-81
2023/07/12 04:58:17;;;;;;;4.25;2.70;;;;;;;18.96;93.38;100354.81;4996471;28;20074;-81
2023/07/12 05:00:44;;;;;;;4.38;2.95;;;;;;;18.90;93.52;100351.97;4993657;28;20085;-82
2023/07/12 05:03:15;;;;;;;7.43;2.70;;;;;;;18.93;92.79;100352.59;4993468;28;20054;-81
2023/07/12 05:05:42;;;;;;;4.33;2.50;;;;;;;18.93;92.74;100356.03;4994811;28;20050;-82
2023/07/12 05:08:09;;;;;;;5.85;3.00;;;;;;;18.98;93.04;100363.34;4993388;28;20061;-80
2023/07/12 05:10:35;;;;;;;5.00;2.67;;;;;;;19.09;93.58;100376.72;4996288;28;20050;-79
2023/07/12 05:13:02;;;;;;;4.53;3.08;;;;;;;19.08;93.16;100361.03;4992673;28;20058;-80
2023/07/12 05:15:29;;;;;;;5.05;3.13;;;;;;;19.11;93.15;100379.97;4980490;28;20142;-79
2023/07/12 05:17:55;;;;;;;3.80;3.00;;;;;;;19.05;93.29;100374.72;5001500;28;20121;-79
2023/07/12 05:20:23;;;;;;;4.43;2.55;;;;;;;19.11;92.12;100369.34;4996292;28;20234;-81
2023/07/12 05:22:50;;;;;;;7.32;2.88;;;;;;;19.23;90.61;100367.63;4978088;28;20137;-77
2023/07/12 05:25:16;;;;;;;3.83;2.47;;;;;;;19.08;90.43;100377.75;4981912;28;20069;-78
2023/07/12 05:27:43;;;;;;;6.90;3.08;;;;;;;18.88;90.84;100379.78;4982274;28;20485;-76
2023/07/12 05:30:11;;;;;;;4.57;2.40;;;;;;;18.81;90.57;100382.47;4983815;28;20096;-79
2023/07/12 05:32:37;;;;;;;4.28;2.80;;;;;;;18.80;90.64;100394.09;4978549;28;20039;-79
2023/07/12 05:35:05;;;;;;;5.32;2.65;;;;;;;18.73;90.65;100397.81;4977813;28;20085;-78
2023/07/12 05:37:33;;;;;;;5.50;2.67;;;;;;;18.74;91.38;100392.31;4990819;28;20059;-78
2023/07/12 05:40:00;;;;;;;4.18;2.45;;;;;;;18.81;90.96;100408.97;4989250;28;20162;-79
2023/07/12 05:42:31;;;;;;;3.10;2.47;;;;;;;18.86;90.65;100416.28;4987664;28;20141;-79
2023/07/12 05:44:58;;;;;;;4.32;2.70;;;;;;;18.83;90.82;100425.47;4985018;28;20130;-78
2023/07/12 05:47:24;;;;;;;3.70;2.28;;;;;;;18.80;90.94;100430.41;4986992;28;20089;-78
2023/07/12 05:49:51;;;;;;;3.35;2.47;;;;;;;18.82;91.14;100431.81;4986798;28;20051;-79
2023/07/12 05:52:18;;;;;;;3.42;2.58;;;;;;;18.82;90.98;100438.94;4985947;28;20053;-78
2023/07/12 05:54:46;;;;;;;5.55;2.90;;;;;;;18.85;90.38;100439.34;4990401;28;20047;-79
2023/07/12 05:57:13;;;;;;;3.50;2.53;;;;;;;19.01;90.52;100450.44;4987285;28;20121;-78
2023/07/12 05:59:40;;;;;;;4.93;2.25;;;;;;;18.99;90.25;100450.63;4982051;28;20554;-79
2023/07/12 06:02:12;;;;;;;4.45;2.75;;;;;;;19.00;89.95;100449.59;4992276;28;20072;-79
2023/07/12 06:04:39;;;;;;;5.05;2.33;;;;;;;19.25;89.55;100444.31;4978523;28;20090;-79
2023/07/12 06:07:06;;;;;;;4.50;2.80;;;;;;;19.40;89.12;100460.69;4981800;28;20533;-78
2023/07/12 06:09:32;;;;;;;4.25;2.55;;;;;;;19.73;87.91;100456.97;4980177;28;20061;-80
2023/07/12 06:12:00;;;;;;;4.30;2.53;;;;;;;19.61;86.55;100442.78;4989881;28;20549;-78
2023/07/12 06:14:27;;;;;;;4.20;2.40;;;;;;;19.72;86.20;100445.53;4978292;28;20132;-77
2023/07/12 06:16:54;;;;;;;4.43;2.60;;;;;;;19.80;86.57;100453.22;4984206;28;20054;-79
2023/07/12 06:19:20;;;;;;;3.53;2.45;;;;;;;19.79;86.20;100442.81;4983210;28;20477;-78
2023/07/12 06:21:47;;;;;;;3.97;2.47;;;;;;;20.25;84.68;100444.94;4981162;28;20110;-78
2023/07/12 06:24:13;;;;;;;4.55;2.65;;;;;;;22.16;79.23;100425.84;4984698;28;20115;-78
2023/07/12 06:26:40;;;;;;;2.85;2.25;;;;;;;22.76;74.77;100422.63;4983252;28;20082;-79
2023/07/12 06:29:08;;;;;;;8.15;3.38;;;;;;;22.89;73.69;100420.72;4987277;28;20054;-79
2023/07/12 06:31:35;;;;;;;4.57;2.72;;;;;;;23.22;72.18;100412.72;4983883;28;20047;-80
2023/07/12 06:34:03;;;;;;;5.45;2.63;;;;;;;24.39;69.42;100422.25;4983352;28;20126;-81
2023/07/12 06:36:30;;;;;;;3.47;3.10;;;;;;;24.38;68.53;100426.81;4980477;28;20051;-80
2023/07/12 06:38:57;;;;;;;6.43;3.15;;;;;;;23.23;72.29;100440.22;4989927;28;20066;-80
2023/07/12 06:44:58;;;;;;;6.03;3.08;;;;;;;22.48;74.74;100420.81;4946101;28;20520;-81
2023/07/12 06:47:49;;;;;;;6.05;3.05;;;;;;;21.38;78.34;100414.81;4966180;28;20098;-81
2023/07/12 06:50:33;;;;;;;3.40;3.00;;;;;;;20.65;81.13;100426.63;4978651;28;20078;-81
2023/07/12 06:53:29;;;;;;;;;;;;;;;;;;;;;
2023/07/12 06:55:58;;;;;;;5.50;2.90;;;;;;;20.36;82.11;100411.44;4964610;28;20455;-80
2023/07/12 06:58:29;;;;;;;6.57;3.28;;;;;;;21.48;80.28;100410.53;4973606;28;20539;-79
2023/07/12 07:01:15;;;;;;;6.13;4.00;;;;;;;22.51;75.59;100409.69;4958146;29;20061;-80
2023/07/12 07:03:48;;;;;;;5.50;3.60;;;;;;;23.36;72.34;100408.66;4968786;28;20066;-81
2023/07/12 07:06:35;;;;;;;4.00;2.45;;;;;;;23.54;70.84;100415.63;4975587;28;20074;-81
2023/07/12 07:15:33;;;;;;;4.78;2.97;;;;;;;22.70;71.04;100428.13;4977059;28;20057;-82
2023/07/12 07:18:03;;;;;;;9.07;3.08;;;;;;;22.73;72.03;100419.63;4965388;28;20134;-80
2023/07/12 07:24:04;;;;;;;5.95;3.45;;;;;;;21.93;74.72;100436.50;4973644;28;20062;-81
2023/07/12 07:26:40;;;;;;;5.05;3.08;;;;;;;22.50;73.71;100431.25;4974196;28;20070;-82
2023/07/12 07:29:25;;;;;;;6.20;2.97;;;;;;;21.66;74.03;100422.09;4974083;28;20457;-81
2023/07/12 07:31:52;;;;;;;7.90;3.63;;;;;;;21.69;74.00;100424.28;4974237;28;20055;-81
2023/07/12 07:34:30;;;;;;;6.80;2.92;;;;;;;21.89;71.55;100431.88;4974623;28;20055;-79
2023/07/12 07:37:15;;;;;;;6.00;3.10;;;;;;;21.86;71.40;100435.81;4976279;28;20169;-82
2023/07/12 07:39:46;;;;;;;12.38;3.50;;;;;;;22.24;69.08;100416.63;4970034;28;20058;-82
2023/07/12 07:42:25;;;;;;;6.45;3.22;;;;;;;23.63;66.75;100442.72;4983230;28;20050;-80
2023/07/12 07:44:55;;;;;;;8.73;2.88;;;;;;;23.95;65.09;100446.34;4976711;28;20055;-81
2023/07/12 07:47:28;;;;;;;6.55;3.30;;;;;;;23.98;64.01;100432.47;4978411;28;20585;-81
2023/07/12 07:50:09;;;;;;;6.97;3.13;;;;;;;24.60;61.82;100415.22;4977687;28;20051;-82
2023/07/12 07:52:42;;;;;;;6.30;3.20;;;;;;;23.81;63.30;100431.72;4967816;28;20050;-81
2023/07/12 07:55:45;;;;;;;5.47;2.97;;;;;;;23.56;64.46;100428.72;4981963;28;20054;-81
2023/07/12 08:15:54;;;;;;;7.78;2.85;;;;;;;23.48;63.74;100401.34;4935493;28;20042;-82
2023/07/12 08:35:51;;;;;;;5.68;2.78;;;;;;;24.35;61.01;100421.16;4983250;28;20055;-79
2023/07/12 08:42:14;;;;;;;10.18;3.30;;;;;;;23.73;61.23;100424.94;4872395;29;20148;-83
2023/07/12 08:48:06;;;;;;;4.88;2.90;;;;;;;23.88;61.32;100448.38;4966964;28;20055;-83
2023/07/12 08:54:07;;;;;;;9.20;2.55;;;;;;;25.07;56.22;100429.56;4973113;28;20443;-81
2023/07/12 08:56:51;;;;;;;5.90;2.30;;;;;;;25.94;55.28;100435.47;4965623;28;20047;-81
2023/07/12 08:59:19;;;;;;;6.07;2.67;;;;;;;26.00;54.91;100426.34;4972485;28;20126;-81
2023/07/12 09:04:53;;;;;;;8.80;3.20;;;;;;;25.05;57.16;100441.59;4969107;28;20050;-81
2023/07/12 09:08:29;;;;;;;8.88;2.90;;;;;;;25.62;55.49;100414.09;4985098;28;20050;-81
2023/07/12 09:11:16;;;;;;;4.63;2.70;;;;;;;25.29;55.46;100413.41;4973818;28;20057;-83
2023/07/12 09:20:53;;;;;;;12.40;3.38;;;;;;;25.46;55.95;100440.03;4848717;29;20149;-83
2023/07/12 09:27:00;;;;;;;6.18;2.78;;;;;;;25.27;56.19;100423.56;4964620;28;20102;-83
2023/07/12 09:38:41;;;;;;;5.07;2.53;;;;;;;25.45;55.56;100438.41;4971671;28;20055;-82
2023/07/12 09:55:05;;;;;;;5.82;2.70;;;;;;;23.30;59.28;100455.00;4961493;28;20044;-83
2023/07/12 10:01:13;;;;;;;8.32;2.72;;;;;;;24.54;56.75;100440.34;4968889;28;20147;-82
2023/07/12 10:04:04;;;;;;;9.02;2.72;;;;;;;24.65;56.33;100432.13;4969645;28;20051;-83
2023/07/12 10:13:15;;;;;;;3.83;2.15;;;;;;;25.94;54.28;100443.50;4955856;28;20051;-83
2023/07/12 10:16:19;;;;;;;5.05;2.78;;;;;;;26.12;53.77;100443.03;4971893;28;20055;-82
2023/07/12 10:19:32;;;;;;;5.45;2.50;;;;;;;25.86;53.30;100428.72;4960257;28;20074;-81
2023/07/12 10:22:18;;;;;;;10.10;2.78;;;;;;;26.10;53.20;100437.13;4965490;28;20052;-80
2023/07/12 10:24:52;;;;;;;5.60;3.35;;;;;;;25.50;54.57;100443.00;4964385;28;20081;-82
2023/07/12 10:27:45;;;;;;;6.20;2.55;;;;;;;25.17;55.09;100449.44;4972536;28;20059;-83
2023/07/12 10:30:36;;;;;;;7.68;3.05;;;;;;;25.41;55.44;100448.84;4981023;28;20058;-83
2023/07/12 10:33:31;;;;;;;7.53;3.13;;;;;;;25.32;56.24;100461.09;4969334;28;20054;-82
2023/07/12 10:36:23;;;;;;;7.82;3.20;;;;;;;24.75;56.91;100461.66;4968433;28;20047;-83
2023/07/12 10:39:04;;;;;;;5.80;3.08;;;;;;;24.28;57.48;100456.09;4979190;28;20061;-84
2023/07/12 10:41:37;;;;;;;6.65;2.70;;;;;;;24.77;56.35;100462.22;4980417;28;20055;-81
2023/07/12 10:44:51;;;;;;;5.18;2.70;;;;;;;25.73;55.05;100447.97;4972452;28;20078;-83
2023/07/12 10:50:48;;;;;;;7.82;2.70;;;;;;;25.46;54.28;100448.06;4970857;28;20047;-81
2023/07/12 10:53:44;;;;;;;5.43;2.58;;;;;;;25.38;54.98;100452.03;4973790;28;20113;-83
2023/07/12 10:59:46;;;;;;;6.95;3.08;;;;;;;24.93;55.94;100459.69;4975551;28;20059;-82
2023/07/12 11:02:52;;;;;;;4.63;2.80;;;;;;;24.78;56.26;100458.47;4983397;28;20357;-83
2023/07/12 11:05:47;;;;;;;7.47;2.70;;;;;;;24.35;56.14;100437.19;4974957;28;20149;-82
2023/07/12 11:08:41;;;;;;;5.20;2.67;;;;;;;24.53;56.02;100452.91;4968553;28;20422;-82
2023/07/12 11:11:43;;;;;;;6.35;2.42;;;;;;;24.63;56.43;100460.19;4983573;28;20042;-83
2023/07/12 11:14:52;;;;;;;6.18;2.63;;;;;;;24.94;56.00;100446.06;4995140;28;20050;-82
2023/07/12 11:17:30;;;;;;;5.20;2.67;;;;;;;24.84;55.23;100464.69;4975941;28;20075;-82
2023/07/12 11:20:32;;;;;;;11.68;2.70;;;;;;;25.29;53.53;100428.66;4977384;28;20133;-82
2023/07/12 11:23:17;;;;;;;9.80;2.83;;;;;;;25.61;53.24;100423.22;4958942;28;20562;-83
2023/07/12 11:26:34;;;;;;;3.83;2.40;;;;;;;25.21;53.66;100442.53;4963626;28;20157;-81
2023/07/12 11:29:38;;;;;;;5.65;2.67;;;;;;;25.44;53.18;100448.31;4977669;28;20058;-82
2023/07/12 11:32:39;;;;;;;4.78;2.70;;;;;;;25.62;51.83;100435.53;4965089;28;20130;-82
2023/07/12 11:38:34;;;;;;;5.57;2.45;;;;;;;25.97;52.09;100435.75;4973779;28;20059;-80
2023/07/12 11:41:32;;;;;;;11.02;2.72;;;;;;;25.66;51.52;100420.59;4983003;28;20055;-84
2023/07/12 11:44:09;;;;;;;5.90;2.40;;;;;;;26.45;50.72;100428.41;4965613;28;20527;-81
2023/07/12 11:46:47;;;;;;;6.28;3.17;;;;;;;26.76;50.53;100443.47;4974130;28;20423;-80
2023/07/12 11:49:35;;;;;;;6.40;2.55;;;;;;;26.76;50.37;100435.41;4974376;28;20127;-82
2023/07/12 11:52:25;;;;;;;4.93;2.10;;;;;;;26.65;50.55;100420.38;4982036;28;20055;-82
2023/07/12 11:55:11;;;;;;;4.85;2.80;;;;;;;25.61;52.50;100429.38;4975594;28;20047;-82
2023/07/12 11:58:00;;;;;;;6.07;2.50;;;;;;;25.50;52.90;100459.06;4970605;28;20058;-83
2023/07/12 12:01:00;;;;;;;6.72;2.85;;;;;;;24.80;54.03;100459.03;4973191;28;20137;-83
2023/07/12 12:03:38;;;;;;;7.05;2.70;;;;;;;25.21;53.69;100443.31;4973719;28;20043;-82
2023/07/12 12:06:24;;;;;;;9.32;2.95;;;;;;;25.11;53.29;100448.59;4973328;28;20069;-82
2023/07/12 12:08:59;;;;;;;5.90;2.70;;;;;;;25.89;51.36;100420.16;4974464;28;20054;-82
2023/07/12 12:11:42;;;;;;;7.05;2.60;;;;;;;25.20;52.62;100439.03;4981781;28;20055;-83
2023/07/12 12:14:35;;;;;;;7.22;3.03;;;;;;;25.25;53.08;100430.22;4971107;28;20058;-81
2023/07/12 12:17:29;;;;;;;8.00;3.10;;;;;;;25.61;52.90;100442.78;4973932;28;20074;-83
2023/07/12 12:20:16;;;;;;;5.18;2.70;;;;;;;26.24;50.51;100429.38;4962868;28;20117;-83
2023/07/12 12:23:03;;;;;;;9.18;2.55;;;;;;;25.99;50.82;100430.94;4964403;28;20056;-82
2023/07/12 12:25:55;;;;;;;7.60;2.85;;;;;;;26.52;50.44;100428.94;4957435;28;20055;-82
2023/07/12 12:31:24;;;;;;;6.15;2.90;;;;;;;25.51;51.90;100440.06;4986062;28;20051;-82
2023/07/12 12:34:22;;;;;;;4.85;2.30;;;;;;;25.93;50.93;100428.50;4980886;28;20052;-81
2023/07/12 12:37:18;;;;;;;5.30;2.92;;;;;;;26.54;50.85;100434.84;4970366;28;20150;-82
2023/07/12 12:40:08;;;;;;;5.47;2.70;;;;;;;25.53;51.28;100432.53;4969421;28;20050;-83
2023/07/12 12:42:54;;;;;;;8.30;2.83;;;;;;;25.62;51.56;100422.16;4964304;23;20065;-88
2023/07/12 14:54:07;;;;;;;6.38;3.55;;;;;;;25.74;47.69;100395.97;4898862;29;20141;-79
2023/07/12 15:00:23;;;;;;;7.75;5.10;;;;;;;25.45;46.37;100382.97;4888715;29;20104;-81
2023/07/12 15:06:20;;;;;;;10.00;5.38;;;;;;;26.06;45.36;100385.09;5011383;23;20062;-80
2023/07/12 15:08:48;;;;;;;7.25;4.00;;;;;;;26.17;44.99;100372.50;4968312;28;20049;-81
2023/07/12 15:11:18;;;;;;;7.00;4.15;;;;;;;26.20;44.58;100371.97;4975313;28;20141;-79
2023/07/12 15:13:46;;;;;;;7.65;4.88;;;;;;;26.16;44.89;100382.44;4967200;28;20085;-82
2023/07/12 15:16:18;;;;;;;11.05;4.72;;;;;;;26.13;45.17;100386.44;4969120;28;20114;-80
2023/07/12 15:18:47;;;;;;;11.25;3.67;;;;;;;25.97;45.15;100379.47;4961543;28;20055;-79
2023/07/12 15:21:22;;;;;;;6.57;3.60;;;;;;;25.96;45.95;100387.75;4961983;28;20069;-80
2023/07/12 15:23:49;;;;;;;8.80;4.10;;;;;;;25.92;46.28;100390.16;4956792;28;20050;-80
2023/07/12 15:26:16;;;;;;;6.95;4.10;;;;;;;26.00;46.48;100386.94;4978315;28;20050;-82
2023/07/12 15:28:45;;;;;;;4.72;3.42;;;;;;;25.91;46.05;100369.78;4980599;28;20070;-79
2023/07/12 15:31:18;;;;;;;7.38;3.60;;;;;;;26.16;45.23;100360.19;4972600;28;20118;-80
2023/07/12 15:33:45;;;;;;;7.35;3.20;;;;;;;26.13;44.58;100367.69;4976525;28;20177;-79
2023/07/12 15:36:13;;;;;;;6.47;2.80;;;;;;;26.02;45.04;100359.88;4974782;28;20065;-80
2023/07/12 15:38:44;;;;;;;4.88;2.72;;;;;;;25.69;45.19;100374.50;4974086;28;20050;-78
2023/07/12 15:41:12;;;;;;;6.05;2.58;;;;;;;25.62;44.78;100358.63;4980611;28;20057;-80
2023/07/12 15:43:41;;;;;;;4.57;2.60;;;;;;;25.70;45.01;100363.53;4966191;28;20430;-80
2023/07/12 15:46:11;;;;;;;6.30;2.67;;;;;;;25.73;45.60;100372.94;4984877;28;20050;-79
2023/07/12 15:48:38;;;;;;;6.90;2.65;;;;;;;25.81;46.02;100368.94;4985387;28;20182;-78
2023/07/12 15:51:15;;;;;;;4.18;2.47;;;;;;;25.99;45.75;100371.16;4966571;28;20186;-80
2023/07/12 15:53:44;;;;;;;4.80;2.60;;;;;;;25.90;46.20;100368.16;4980208;28;20054;-80
2023/07/12 15:56:16;;;;;;;5.85;2.70;;;;;;;25.36;45.97;100365.78;4981881;28;20267;-80
2023/07/12 15:58:44;;;;;;;4.88;2.90;;;;;;;25.24;46.47;100369.72;4973808;28;20043;-79
2023/07/12 16:01:17;;;;;;;6.38;2.75;;;;;;;25.35;46.62;100368.72;4980675;28;20050;-80
2023/07/12 16:03:44;;;;;;;5.93;2.47;;;;;;;25.45;46.64;100369.56;4974435;28;20049;-76
2023/07/12 16:06:11;;;;;;;4.40;2.38;;;;;;;25.80;45.62;100362.78;4969816;28;20142;-80
2023/07/12 16:08:38;;;;;;;9.02;2.90;;;;;;;25.63;45.86;100362.13;4976783;28;20086;-79
2023/07/12 16:11:23;;;;;;;3.72;2.58;;;;;;;25.28;46.09;100360.91;4983193;28;20086;-80